X  Fermer Données météorologiques d'aviation de Metar     LGRX Patras Araxos Agamemnon Airport
Température
20°C Température
7°C Point de rosée
43% Humidité



Vent
14 KM/H
9 MPH
4 M/S
8 KTS



20°
NNE
Conditions actuelles

Clair Clair
Pression 1023.92 (hPa) - 30.24 (inHg)
Visibilité 6.2 (mile) - 10 (km)
Aéroport
Code de l'aéroport LGRX

Emplacement: Patras Araxos Agamemnon Airport
Distance: 108 (km)

Metar:
LGRX 060620Z 02008KT CAVOK 20/07 Q1024

Temps: 06-10-2022 09:20 EEST